sensor_id;sensor_type;location;lat;lon;timestamp;temperature;humidity
68439;SHT31;55421;51.600;5.718;2023-09-18T00:02:01;20.01;86.30
68439;SHT31;55421;51.600;5.718;2023-09-18T00:04:27;20.02;86.32
68439;SHT31;55421;51.600;5.718;2023-09-18T00:06:54;20.00;86.32
68439;SHT31;55421;51.600;5.718;2023-09-18T00:09:20;20.00;86.35
68439;SHT31;55421;51.600;5.718;2023-09-18T00:11:47;19.99;86.39
68439;SHT31;55421;51.600;5.718;2023-09-18T00:14:14;19.98;86.40
68439;SHT31;55421;51.600;5.718;2023-09-18T00:16:40;19.98;86.40
68439;SHT31;55421;51.600;5.718;2023-09-18T00:19:07;19.97;86.40
68439;SHT31;55421;51.600;5.718;2023-09-18T00:21:34;19.96;86.40
68439;SHT31;55421;51.600;5.718;2023-09-18T00:24:00;19.96;86.40
68439;SHT31;55421;51.600;5.718;2023-09-18T00:26:27;19.96;86.46
68439;SHT31;55421;51.600;5.718;2023-09-18T00:28:53;19.95;86.47
68439;SHT31;55421;51.600;5.718;2023-09-18T00:31:20;19.94;86.46
68439;SHT31;55421;51.600;5.718;2023-09-18T00:33:46;19.95;86.49
68439;SHT31;55421;51.600;5.718;2023-09-18T00:36:14;19.94;86.50
68439;SHT31;55421;51.600;5.718;2023-09-18T00:38:40;19.94;86.50
68439;SHT31;55421;51.600;5.718;2023-09-18T00:41:07;19.93;86.50
68439;SHT31;55421;51.600;5.718;2023-09-18T00:43:33;19.92;86.50
68439;SHT31;55421;51.600;5.718;2023-09-18T00:46:01;19.92;86.50
68439;SHT31;55421;51.600;5.718;2023-09-18T00:48:28;19.90;86.50
68439;SHT31;55421;51.600;5.718;2023-09-18T00:50:55;19.90;86.50
68439;SHT31;55421;51.600;5.718;2023-09-18T00:53:23;19.90;86.56
68439;SHT31;55421;51.600;5.718;2023-09-18T00:55:53;19.89;86.59
68439;SHT31;55421;51.600;5.718;2023-09-18T00:58:23;19.90;86.60
68439;SHT31;55421;51.600;5.718;2023-09-18T01:00:51;19.89;86.60
68439;SHT31;55421;51.600;5.718;2023-09-18T01:03:19;19.89;86.60
68439;SHT31;55421;51.600;5.718;2023-09-18T01:05:47;19.89;86.60
68439;SHT31;55421;51.600;5.718;2023-09-18T01:08:14;19.89;86.58
68439;SHT31;55421;51.600;5.718;2023-09-18T01:10:44;19.89;86.60
68439;SHT31;55421;51.600;5.718;2023-09-18T01:13:27;19.90;86.63
68439;SHT31;55421;51.600;5.718;2023-09-18T01:16:20;19.90;86.65
68439;SHT31;55421;51.600;5.718;2023-09-18T01:18:56;19.92;86.70
68439;SHT31;55421;51.600;5.718;2023-09-18T01:21:23;19.94;86.70
68439;SHT31;55421;51.600;5.718;2023-09-18T01:23:49;19.93;86.70
68439;SHT31;55421;51.600;5.718;2023-09-18T01:26:17;19.95;86.70
68439;SHT31;55421;51.600;5.718;2023-09-18T01:28:44;19.96;86.72
68439;SHT31;55421;51.600;5.718;2023-09-18T01:31:10;19.96;86.70
68439;SHT31;55421;51.600;5.718;2023-09-18T01:33:37;19.98;86.70
68439;SHT31;55421;51.600;5.718;2023-09-18T01:36:08;19.99;86.70
68439;SHT31;55421;51.600;5.718;2023-09-18T01:38:37;20.00;86.67
68439;SHT31;55421;51.600;5.718;2023-09-18T01:41:04;20.00;86.62
68439;SHT31;55421;51.600;5.718;2023-09-18T01:43:30;20.01;86.63
68439;SHT31;55421;51.600;5.718;2023-09-18T01:45:58;20.03;86.61
68439;SHT31;55421;51.600;5.718;2023-09-18T01:48:24;20.05;86.59
68439;SHT31;55421;51.600;5.718;2023-09-18T01:50:51;20.05;86.53
68439;SHT31;55421;51.600;5.718;2023-09-18T01:53:17;20.07;86.50
68439;SHT31;55421;51.600;5.718;2023-09-18T01:55:44;20.08;86.50
68439;SHT31;55421;51.600;5.718;2023-09-18T01:58:10;20.09;86.42
68439;SHT31;55421;51.600;5.718;2023-09-18T02:00:40;20.11;86.38
68439;SHT31;55421;51.600;5.718;2023-09-18T02:03:07;20.12;86.29
68439;SHT31;55421;51.600;5.718;2023-09-18T02:05:33;20.13;86.24
68439;SHT31;55421;51.600;5.718;2023-09-18T02:08:00;20.15;86.20
68439;SHT31;55421;51.600;5.718;2023-09-18T02:10:26;20.16;86.14
68439;SHT31;55421;51.600;5.718;2023-09-18T02:12:53;20.18;86.09
68439;SHT31;55421;51.600;5.718;2023-09-18T02:15:20;20.19;86.01
68439;SHT31;55421;51.600;5.718;2023-09-18T02:17:46;20.21;85.94
68439;SHT31;55421;51.600;5.718;2023-09-18T02:20:12;20.22;85.88
68439;SHT31;55421;51.600;5.718;2023-09-18T02:22:39;20.24;85.80
68439;SHT31;55421;51.600;5.718;2023-09-18T02:25:10;20.25;85.76
68439;SHT31;55421;51.600;5.718;2023-09-18T02:27:38;20.25;85.71
68439;SHT31;55421;51.600;5.718;2023-09-18T02:30:04;20.25;85.70
68439;SHT31;55421;51.600;5.718;2023-09-18T02:32:32;20.24;85.69
68439;SHT31;55421;51.600;5.718;2023-09-18T02:35:00;20.23;85.67
68439;SHT31;55421;51.600;5.718;2023-09-18T02:37:27;20.23;85.64
68439;SHT31;55421;51.600;5.718;2023-09-18T02:39:55;20.23;85.61
68439;SHT31;55421;51.600;5.718;2023-09-18T02:42:21;20.23;85.60
68439;SHT31;55421;51.600;5.718;2023-09-18T02:44:48;20.23;85.59
68439;SHT31;55421;51.600;5.718;2023-09-18T02:47:14;20.23;85.58
68439;SHT31;55421;51.600;5.718;2023-09-18T02:49:40;20.22;85.55
68439;SHT31;55421;51.600;5.718;2023-09-18T02:52:07;20.22;85.53
68439;SHT31;55421;51.600;5.718;2023-09-18T02:54:35;20.21;85.50
68439;SHT31;55421;51.600;5.718;2023-09-18T02:57:02;20.21;85.50
68439;SHT31;55421;51.600;5.718;2023-09-18T02:59:29;20.19;85.50
68439;SHT31;55421;51.600;5.718;2023-09-18T03:01:57;20.19;85.50
68439;SHT31;55421;51.600;5.718;2023-09-18T03:04:23;20.19;85.50
68439;SHT31;55421;51.600;5.718;2023-09-18T03:06:50;20.18;85.50
68439;SHT31;55421;51.600;5.718;2023-09-18T03:09:16;20.16;85.50
68439;SHT31;55421;51.600;5.718;2023-09-18T03:11:45;20.16;85.57
68439;SHT31;55421;51.600;5.718;2023-09-18T03:14:11;20.10;85.61
68439;SHT31;55421;51.600;5.718;2023-09-18T03:16:37;20.09;85.66
68439;SHT31;55421;51.600;5.718;2023-09-18T03:19:04;20.07;85.70
68439;SHT31;55421;51.600;5.718;2023-09-18T03:21:30;20.05;85.70
68439;SHT31;55421;51.600;5.718;2023-09-18T03:23:59;20.04;85.71
68439;SHT31;55421;51.600;5.718;2023-09-18T03:26:26;20.03;85.76
68439;SHT31;55421;51.600;5.718;2023-09-18T03:28:52;20.02;85.80
68439;SHT31;55421;51.600;5.718;2023-09-18T03:31:19;20.01;85.80
68439;SHT31;55421;51.600;5.718;2023-09-18T03:33:45;20.01;85.80
68439;SHT31;55421;51.600;5.718;2023-09-18T03:36:12;20.01;85.80
68439;SHT31;55421;51.600;5.718;2023-09-18T03:38:40;20.01;85.80
68439;SHT31;55421;51.600;5.718;2023-09-18T03:41:06;20.01;85.78
68439;SHT31;55421;51.600;5.718;2023-09-18T03:43:32;20.03;85.77
68439;SHT31;55421;51.600;5.718;2023-09-18T03:46:05;20.04;85.75
68439;SHT31;55421;51.600;5.718;2023-09-18T03:48:34;20.07;85.74
68439;SHT31;55421;51.600;5.718;2023-09-18T03:51:04;20.09;85.64
68439;SHT31;55421;51.600;5.718;2023-09-18T03:53:34;20.12;85.60
68439;SHT31;55421;51.600;5.718;2023-09-18T03:56:01;20.15;85.53
68439;SHT31;55421;51.600;5.718;2023-09-18T03:58:27;20.18;85.46
68439;SHT31;55421;51.600;5.718;2023-09-18T04:00:54;20.22;85.40
68439;SHT31;55421;51.600;5.718;2023-09-18T04:03:21;20.24;85.40
68439;SHT31;55421;51.600;5.718;2023-09-18T04:05:48;20.28;85.39
68439;SHT31;55421;51.600;5.718;2023-09-18T04:08:14;20.30;85.37
68439;SHT31;55421;51.600;5.718;2023-09-18T04:10:41;20.32;85.37
68439;SHT31;55421;51.600;5.718;2023-09-18T04:13:07;20.34;85.35
68439;SHT31;55421;51.600;5.718;2023-09-18T04:15:34;20.37;85.37
68439;SHT31;55421;51.600;5.718;2023-09-18T04:18:04;20.39;85.40
68439;SHT31;55421;51.600;5.718;2023-09-18T04:20:33;20.40;85.39
68439;SHT31;55421;51.600;5.718;2023-09-18T04:23:22;20.42;85.46
68439;SHT31;55421;51.600;5.718;2023-09-18T04:25:51;20.42;85.51
68439;SHT31;55421;51.600;5.718;2023-09-18T04:28:20;20.42;85.53
68439;SHT31;55421;51.600;5.718;2023-09-18T04:30:49;20.41;85.60
68439;SHT31;55421;51.600;5.718;2023-09-18T04:33:16;20.40;85.64
68439;SHT31;55421;51.600;5.718;2023-09-18T04:35:43;20.39;85.77
68439;SHT31;55421;51.600;5.718;2023-09-18T04:38:10;20.38;85.83
68439;SHT31;55421;51.600;5.718;2023-09-18T04:40:37;20.36;85.90
68439;SHT31;55421;51.600;5.718;2023-09-18T04:43:03;20.36;85.98
68439;SHT31;55421;51.600;5.718;2023-09-18T04:45:31;20.35;86.05
68439;SHT31;55421;51.600;5.718;2023-09-18T04:47:58;20.33;86.14
68439;SHT31;55421;51.600;5.718;2023-09-18T04:50:25;20.32;86.21
68439;SHT31;55421;51.600;5.718;2023-09-18T04:52:54;20.32;86.31
68439;SHT31;55421;51.600;5.718;2023-09-18T04:55:22;20.30;86.39
68439;SHT31;55421;51.600;5.718;2023-09-18T04:57:48;20.29;86.50
68439;SHT31;55421;51.600;5.718;2023-09-18T05:00:15;20.27;86.50
68439;SHT31;55421;51.600;5.718;2023-09-18T05:02:42;20.26;86.52
68439;SHT31;55421;51.600;5.718;2023-09-18T05:05:09;20.25;86.58
68439;SHT31;55421;51.600;5.718;2023-09-18T05:07:35;20.24;86.60
68439;SHT31;55421;51.600;5.718;2023-09-18T05:10:03;20.23;86.67
68439;SHT31;55421;51.600;5.718;2023-09-18T05:12:33;20.22;86.74
68439;SHT31;55421;51.600;5.718;2023-09-18T05:14:59;20.21;86.77
68439;SHT31;55421;51.600;5.718;2023-09-18T05:17:42;20.19;86.80
68439;SHT31;55421;51.600;5.718;2023-09-18T05:20:13;20.18;86.83
68439;SHT31;55421;51.600;5.718;2023-09-18T05:22:43;20.16;86.89
68439;SHT31;55421;51.600;5.718;2023-09-18T05:25:11;20.16;86.90
68439;SHT31;55421;51.600;5.718;2023-09-18T05:27:38;20.16;86.82
68439;SHT31;55421;51.600;5.718;2023-09-18T05:30:14;20.16;86.72
68439;SHT31;55421;51.600;5.718;2023-09-18T05:32:43;20.15;86.52
68439;SHT31;55421;51.600;5.718;2023-09-18T05:35:10;20.15;86.41
68439;SHT31;55421;51.600;5.718;2023-09-18T05:37:39;20.14;86.28
68439;SHT31;55421;51.600;5.718;2023-09-18T05:40:07;20.14;86.09
68439;SHT31;55421;51.600;5.718;2023-09-18T05:42:36;20.15;85.97
68439;SHT31;55421;51.600;5.718;2023-09-18T05:45:10;20.14;85.85
68439;SHT31;55421;51.600;5.718;2023-09-18T05:47:38;20.12;85.73
68439;SHT31;55421;51.600;5.718;2023-09-18T05:50:06;20.13;85.58
68439;SHT31;55421;51.600;5.718;2023-09-18T05:52:35;20.13;85.45
68439;SHT31;55421;51.600;5.718;2023-09-18T05:55:02;20.12;85.33
68439;SHT31;55421;51.600;5.718;2023-09-18T05:57:29;20.12;85.22
68439;SHT31;55421;51.600;5.718;2023-09-18T05:59:55;20.11;85.05
68439;SHT31;55421;51.600;5.718;2023-09-18T06:02:23;20.11;84.98
68439;SHT31;55421;51.600;5.718;2023-09-18T06:05:00;20.12;84.86
68439;SHT31;55421;51.600;5.718;2023-09-18T06:07:29;20.14;84.79
68439;SHT31;55421;51.600;5.718;2023-09-18T06:09:56;20.14;84.71
68439;SHT31;55421;51.600;5.718;2023-09-18T06:12:24;20.15;84.67
68439;SHT31;55421;51.600;5.718;2023-09-18T06:14:52;20.16;84.60
68439;SHT31;55421;51.600;5.718;2023-09-18T06:17:18;20.16;84.52
68439;SHT31;55421;51.600;5.718;2023-09-18T06:19:45;20.16;84.48
68439;SHT31;55421;51.600;5.718;2023-09-18T06:22:12;20.16;84.35
68439;SHT31;55421;51.600;5.718;2023-09-18T06:24:39;20.15;84.25
68439;SHT31;55421;51.600;5.718;2023-09-18T06:27:06;20.16;84.21
68439;SHT31;55421;51.600;5.718;2023-09-18T06:29:33;20.15;84.07
68439;SHT31;55421;51.600;5.718;2023-09-18T06:32:01;20.15;84.00
68439;SHT31;55421;51.600;5.718;2023-09-18T06:34:27;20.16;83.92
68439;SHT31;55421;51.600;5.718;2023-09-18T06:36:54;20.18;83.90
68439;SHT31;55421;51.600;5.718;2023-09-18T06:39:21;20.21;83.82
68439;SHT31;55421;51.600;5.718;2023-09-18T06:41:49;20.21;83.74
68439;SHT31;55421;51.600;5.718;2023-09-18T06:44:16;20.24;83.68
68439;SHT31;55421;51.600;5.718;2023-09-18T06:46:42;20.26;83.63
68439;SHT31;55421;51.600;5.718;2023-09-18T06:49:09;20.26;83.55
68439;SHT31;55421;51.600;5.718;2023-09-18T06:51:35;20.29;83.50
68439;SHT31;55421;51.600;5.718;2023-09-18T06:54:02;20.30;83.40
68439;SHT31;55421;51.600;5.718;2023-09-18T06:56:29;20.29;83.40
68439;SHT31;55421;51.600;5.718;2023-09-18T06:58:55;20.31;83.35
68439;SHT31;55421;51.600;5.718;2023-09-18T07:01:22;20.31;83.28
68439;SHT31;55421;51.600;5.718;2023-09-18T07:03:50;20.32;83.20
68439;SHT31;55421;51.600;5.718;2023-09-18T07:06:17;20.33;83.14
68439;SHT31;55421;51.600;5.718;2023-09-18T07:08:46;20.35;83.09
68439;SHT31;55421;51.600;5.718;2023-09-18T07:11:16;20.37;83.04
68439;SHT31;55421;51.600;5.718;2023-09-18T07:13:43;20.40;83.04
68439;SHT31;55421;51.600;5.718;2023-09-18T07:16:10;20.39;82.90
68439;SHT31;55421;51.600;5.718;2023-09-18T07:18:37;20.40;82.80
68439;SHT31;55421;51.600;5.718;2023-09-18T07:21:04;20.41;82.77
68439;SHT31;55421;51.600;5.718;2023-09-18T07:23:31;20.40;82.70
68439;SHT31;55421;51.600;5.718;2023-09-18T07:25:57;20.38;82.67
68439;SHT31;55421;51.600;5.718;2023-09-18T07:28:24;20.38;82.64
68439;SHT31;55421;51.600;5.718;2023-09-18T07:30:51;20.37;82.60
68439;SHT31;55421;51.600;5.718;2023-09-18T07:33:18;20.34;82.62
68439;SHT31;55421;51.600;5.718;2023-09-18T07:35:47;20.35;82.60
68439;SHT31;55421;51.600;5.718;2023-09-18T07:38:14;20.34;82.59
68439;SHT31;55421;51.600;5.718;2023-09-18T07:40:41;20.34;82.46
68439;SHT31;55421;51.600;5.718;2023-09-18T07:43:08;20.34;82.41
68439;SHT31;55421;51.600;5.718;2023-09-18T07:45:34;20.34;82.38
68439;SHT31;55421;51.600;5.718;2023-09-18T07:48:00;20.34;82.29
68439;SHT31;55421;51.600;5.718;2023-09-18T07:50:27;20.34;82.18
68439;SHT31;55421;51.600;5.718;2023-09-18T07:52:54;20.35;82.21
68439;SHT31;55421;51.600;5.718;2023-09-18T07:55:20;20.37;82.30
68439;SHT31;55421;51.600;5.718;2023-09-18T07:57:47;20.41;82.25
68439;SHT31;55421;51.600;5.718;2023-09-18T08:00:15;20.44;82.07
68439;SHT31;55421;51.600;5.718;2023-09-18T08:02:43;20.45;82.00
68439;SHT31;55421;51.600;5.718;2023-09-18T08:05:10;20.49;81.91
68439;SHT31;55421;51.600;5.718;2023-09-18T08:07:37;20.51;81.90
68439;SHT31;55421;51.600;5.718;2023-09-18T08:10:04;20.55;81.87
68439;SHT31;55421;51.600;5.718;2023-09-18T08:12:32;20.56;81.76
68439;SHT31;55421;51.600;5.718;2023-09-18T08:14:59;20.56;81.51
68439;SHT31;55421;51.600;5.718;2023-09-18T08:17:25;20.57;81.38
68439;SHT31;55421;51.600;5.718;2023-09-18T08:19:52;20.59;81.31
68439;SHT31;55421;51.600;5.718;2023-09-18T08:22:19;20.61;81.26
68439;SHT31;55421;51.600;5.718;2023-09-18T08:24:47;20.62;81.12
68439;SHT31;55421;51.600;5.718;2023-09-18T08:27:16;20.64;80.95
68439;SHT31;55421;51.600;5.718;2023-09-18T08:29:43;20.66;80.95
68439;SHT31;55421;51.600;5.718;2023-09-18T08:32:11;20.74;80.86
68439;SHT31;55421;51.600;5.718;2023-09-18T08:34:38;20.85;80.93
68439;SHT31;55421;51.600;5.718;2023-09-18T08:37:04;20.94;80.87
68439;SHT31;55421;51.600;5.718;2023-09-18T08:39:31;20.95;80.46
68439;SHT31;55421;51.600;5.718;2023-09-18T08:42:02;20.93;80.26
68439;SHT31;55421;51.600;5.718;2023-09-18T08:44:33;20.92;80.06
68439;SHT31;55421;51.600;5.718;2023-09-18T08:47:06;20.91;79.97
68439;SHT31;55421;51.600;5.718;2023-09-18T08:49:36;20.90;79.90
68439;SHT31;55421;51.600;5.718;2023-09-18T08:52:04;20.91;79.73
68439;SHT31;55421;51.600;5.718;2023-09-18T08:54:32;20.91;79.62
68439;SHT31;55421;51.600;5.718;2023-09-18T08:56:59;20.91;79.62
68439;SHT31;55421;51.600;5.718;2023-09-18T08:59:26;20.92;79.83
68439;SHT31;55421;51.600;5.718;2023-09-18T09:01:55;20.96;79.70
68439;SHT31;55421;51.600;5.718;2023-09-18T09:04:21;20.98;79.43
68439;SHT31;55421;51.600;5.718;2023-09-18T09:06:48;21.11;79.52
68439;SHT31;55421;51.600;5.718;2023-09-18T09:09:15;21.16;79.20
68439;SHT31;55421;51.600;5.718;2023-09-18T09:11:47;21.18;78.91
68439;SHT31;55421;51.600;5.718;2023-09-18T09:14:16;21.23;78.97
68439;SHT31;55421;51.600;5.718;2023-09-18T09:16:48;21.24;78.63
68439;SHT31;55421;51.600;5.718;2023-09-18T09:19:17;21.34;78.61
68439;SHT31;55421;51.600;5.718;2023-09-18T09:21:45;21.53;78.73
68439;SHT31;55421;51.600;5.718;2023-09-18T09:24:12;21.72;78.50
68439;SHT31;55421;51.600;5.718;2023-09-18T09:26:42;21.89;78.12
68439;SHT31;55421;51.600;5.718;2023-09-18T09:29:15;22.01;77.54
68439;SHT31;55421;51.600;5.718;2023-09-18T09:31:46;22.11;76.97
68439;SHT31;55421;51.600;5.718;2023-09-18T09:34:23;22.20;76.86
68439;SHT31;55421;51.600;5.718;2023-09-18T09:36:55;22.26;76.19
68439;SHT31;55421;51.600;5.718;2023-09-18T09:39:23;22.34;76.20
68439;SHT31;55421;51.600;5.718;2023-09-18T09:41:51;22.40;76.02
68439;SHT31;55421;51.600;5.718;2023-09-18T09:44:18;22.44;75.93
68439;SHT31;55421;51.600;5.718;2023-09-18T09:46:47;22.50;75.90
68439;SHT31;55421;51.600;5.718;2023-09-18T09:49:15;22.49;75.70
68439;SHT31;55421;51.600;5.718;2023-09-18T09:51:42;22.49;75.50
68439;SHT31;55421;51.600;5.718;2023-09-18T09:54:09;22.61;75.55
68439;SHT31;55421;51.600;5.718;2023-09-18T09:59:17;22.82;74.78
68439;SHT31;55421;51.600;5.718;2023-09-18T10:01:46;22.83;74.33
68439;SHT31;55421;51.600;5.718;2023-09-18T10:04:17;22.77;73.83
68439;SHT31;55421;51.600;5.718;2023-09-18T10:06:54;22.75;73.80
68439;SHT31;55421;51.600;5.718;2023-09-18T10:09:34;22.79;74.01
68439;SHT31;55421;51.600;5.718;2023-09-18T10:12:06;22.80;73.28
68439;SHT31;55421;51.600;5.718;2023-09-18T10:14:38;22.71;72.92
68439;SHT31;55421;51.600;5.718;2023-09-18T10:17:18;22.67;73.33
68439;SHT31;55421;51.600;5.718;2023-09-18T10:22:44;22.57;73.01
68439;SHT31;55421;51.600;5.718;2023-09-18T10:25:26;22.55;73.24
68439;SHT31;55421;51.600;5.718;2023-09-18T10:27:58;22.58;73.35
68439;SHT31;55421;51.600;5.718;2023-09-18T10:30:29;22.61;73.54
68439;SHT31;55421;51.600;5.718;2023-09-18T10:33:00;22.59;73.37
68439;SHT31;55421;51.600;5.718;2023-09-18T10:35:27;22.56;73.40
68439;SHT31;55421;51.600;5.718;2023-09-18T10:37:55;22.53;73.32
68439;SHT31;55421;51.600;5.718;2023-09-18T10:40:24;22.51;73.33
68439;SHT31;55421;51.600;5.718;2023-09-18T10:42:54;22.61;73.57
68439;SHT31;55421;51.600;5.718;2023-09-18T10:45:23;22.74;73.30
68439;SHT31;55421;51.600;5.718;2023-09-18T10:47:52;23.03;73.62
68439;SHT31;55421;51.600;5.718;2023-09-18T10:50:23;23.22;73.41
68439;SHT31;55421;51.600;5.718;2023-09-18T10:52:52;23.28;72.60
68439;SHT31;55421;51.600;5.718;2023-09-18T10:55:20;23.38;72.35
68439;SHT31;55421;51.600;5.718;2023-09-18T10:57:52;23.47;72.37
68439;SHT31;55421;51.600;5.718;2023-09-18T11:00:21;23.44;72.07
68439;SHT31;55421;51.600;5.718;2023-09-18T11:02:51;23.40;72.07
68439;SHT31;55421;51.600;5.718;2023-09-18T11:05:32;23.50;72.30
68439;SHT31;55421;51.600;5.718;2023-09-18T11:13:41;23.97;71.80
68439;SHT31;55421;51.600;5.718;2023-09-18T11:21:27;24.11;70.04
68439;SHT31;55421;51.600;5.718;2023-09-18T11:24:00;23.97;69.60
68439;SHT31;55421;51.600;5.718;2023-09-18T11:26:30;23.88;70.09
68439;SHT31;55421;51.600;5.718;2023-09-18T11:28:58;23.81;70.15
68439;SHT31;55421;51.600;5.718;2023-09-18T11:34:26;23.63;69.59
68439;SHT31;55421;51.600;5.718;2023-09-18T11:36:57;23.74;69.95
68439;SHT31;55421;51.600;5.718;2023-09-18T11:39:37;23.85;69.57
68439;SHT31;55421;51.600;5.718;2023-09-18T11:42:18;23.88;69.38
68439;SHT31;55421;51.600;5.718;2023-09-18T11:45:01;23.89;69.13
68439;SHT31;55421;51.600;5.718;2023-09-18T11:47:35;23.91;68.82
68439;SHT31;55421;51.600;5.718;2023-09-18T11:50:15;23.77;68.18
68439;SHT31;55421;51.600;5.718;2023-09-18T11:52:56;23.71;68.29
68439;SHT31;55421;51.600;5.718;2023-09-18T11:55:29;23.75;68.79
68439;SHT31;55421;51.600;5.718;2023-09-18T11:57:58;23.74;68.92
68439;SHT31;55421;51.600;5.718;2023-09-18T12:00:35;23.69;69.01
68439;SHT31;55421;51.600;5.718;2023-09-18T12:03:20;23.66;69.02
68439;SHT31;55421;51.600;5.718;2023-09-18T12:05:59;23.67;68.75
68439;SHT31;55421;51.600;5.718;2023-09-18T12:08:40;23.70;68.66
68439;SHT31;55421;51.600;5.718;2023-09-18T12:11:12;23.75;68.66
68439;SHT31;55421;51.600;5.718;2023-09-18T12:13:46;23.77;68.25
68439;SHT31;55421;51.600;5.718;2023-09-18T12:16:18;23.75;67.40
68439;SHT31;55421;51.600;5.718;2023-09-18T12:18:46;23.73;67.06
68439;SHT31;55421;51.600;5.718;2023-09-18T12:21:18;23.64;66.67
68439;SHT31;55421;51.600;5.718;2023-09-18T12:23:46;23.64;67.21
68439;SHT31;55421;51.600;5.718;2023-09-18T12:26:19;23.58;66.86
68439;SHT31;55421;51.600;5.718;2023-09-18T12:28:50;23.57;66.89
68439;SHT31;55421;51.600;5.718;2023-09-18T12:31:20;23.61;67.14
68439;SHT31;55421;51.600;5.718;2023-09-18T12:33:55;23.62;66.64
68439;SHT31;55421;51.600;5.718;2023-09-18T12:36:24;23.61;66.92
68439;SHT31;55421;51.600;5.718;2023-09-18T12:38:58;23.67;66.95
68439;SHT31;55421;51.600;5.718;2023-09-18T12:41:32;23.74;67.32
68439;SHT31;55421;51.600;5.718;2023-09-18T12:44:01;23.75;66.62
68439;SHT31;55421;51.600;5.718;2023-09-18T12:46:35;23.76;65.85
68439;SHT31;55421;51.600;5.718;2023-09-18T12:49:19;23.84;65.99
68439;SHT31;55421;51.600;5.718;2023-09-18T12:51:59;23.98;65.56
68439;SHT31;55421;51.600;5.718;2023-09-18T12:54:41;24.04;65.40
68439;SHT31;55421;51.600;5.718;2023-09-18T12:57:22;24.09;65.20
68439;SHT31;55421;51.600;5.718;2023-09-18T12:59:52;24.14;64.76
68439;SHT31;55421;51.600;5.718;2023-09-18T13:02:25;24.18;64.19
68439;SHT31;55421;51.600;5.718;2023-09-18T13:04:54;24.17;64.19
68439;SHT31;55421;51.600;5.718;2023-09-18T13:07:23;24.19;64.63
68439;SHT31;55421;51.600;5.718;2023-09-18T13:10:05;24.18;65.27
68439;SHT31;55421;51.600;5.718;2023-09-18T13:15:23;24.05;64.61
68439;SHT31;55421;51.600;5.718;2023-09-18T13:17:59;23.98;64.48
68439;SHT31;55421;51.600;5.718;2023-09-18T13:20:35;23.90;64.92
68439;SHT31;55421;51.600;5.718;2023-09-18T13:23:04;23.84;64.84
68439;SHT31;55421;51.600;5.718;2023-09-18T13:25:33;23.81;64.64
68439;SHT31;55421;51.600;5.718;2023-09-18T13:28:14;23.81;65.02
68439;SHT31;55421;51.600;5.718;2023-09-18T13:30:41;23.84;65.21
68439;SHT31;55421;51.600;5.718;2023-09-18T13:33:11;23.90;65.39
68439;SHT31;55421;51.600;5.718;2023-09-18T13:35:44;23.93;65.54
68439;SHT31;55421;51.600;5.718;2023-09-18T13:38:11;23.95;65.23
68439;SHT31;55421;51.600;5.718;2023-09-18T13:40:43;23.95;65.30
68439;SHT31;55421;51.600;5.718;2023-09-18T13:43:15;23.93;65.16
68439;SHT31;55421;51.600;5.718;2023-09-18T13:45:41;23.93;64.98
68439;SHT31;55421;51.600;5.718;2023-09-18T13:48:09;23.91;64.52
68439;SHT31;55421;51.600;5.718;2023-09-18T13:50:37;23.88;64.60
68439;SHT31;55421;51.600;5.718;2023-09-18T13:53:06;23.87;64.42
68439;SHT31;55421;51.600;5.718;2023-09-18T13:55:34;23.84;64.61
68439;SHT31;55421;51.600;5.718;2023-09-18T13:58:02;23.84;64.67
68439;SHT31;55421;51.600;5.718;2023-09-18T14:00:29;23.84;64.91
68439;SHT31;55421;51.600;5.718;2023-09-18T14:02:57;23.85;64.99
68439;SHT31;55421;51.600;5.718;2023-09-18T14:05:26;23.82;64.97
68439;SHT31;55421;51.600;5.718;2023-09-18T14:07:55;23.80;64.99
68439;SHT31;55421;51.600;5.718;2023-09-18T14:10:26;23.80;64.66
68439;SHT31;55421;51.600;5.718;2023-09-18T14:12:54;23.82;64.12
68439;SHT31;55421;51.600;5.718;2023-09-18T14:15:21;23.79;63.97
68439;SHT31;55421;51.600;5.718;2023-09-18T14:17:47;23.73;63.19
68439;SHT31;55421;51.600;5.718;2023-09-18T14:20:15;23.75;63.34
68439;SHT31;55421;51.600;5.718;2023-09-18T14:22:44;23.77;63.32
68439;SHT31;55421;51.600;5.718;2023-09-18T14:25:12;23.78;63.29
68439;SHT31;55421;51.600;5.718;2023-09-18T14:27:39;23.83;63.50
68439;SHT31;55421;51.600;5.718;2023-09-18T14:30:06;23.90;62.99
68439;SHT31;55421;51.600;5.718;2023-09-18T14:32:33;23.97;63.22
68439;SHT31;55421;51.600;5.718;2023-09-18T14:35:02;24.02;62.75
68439;SHT31;55421;51.600;5.718;2023-09-18T14:37:31;24.07;62.49
68439;SHT31;55421;51.600;5.718;2023-09-18T14:39:57;24.09;62.15
68439;SHT31;55421;51.600;5.718;2023-09-18T14:42:24;24.05;62.24
68439;SHT31;55421;51.600;5.718;2023-09-18T14:44:50;24.04;61.77
68439;SHT31;55421;51.600;5.718;2023-09-18T14:47:17;24.04;60.88
68439;SHT31;55421;51.600;5.718;2023-09-18T14:49:43;24.07;60.42
68439;SHT31;55421;51.600;5.718;2023-09-18T14:52:15;24.08;60.28
68439;SHT31;55421;51.600;5.718;2023-09-18T14:54:46;24.11;60.73
68439;SHT31;55421;51.600;5.718;2023-09-18T14:57:12;24.12;60.79
68439;SHT31;55421;51.600;5.718;2023-09-18T14:59:39;24.12;60.19
68439;SHT31;55421;51.600;5.718;2023-09-18T15:02:08;24.10;60.19
68439;SHT31;55421;51.600;5.718;2023-09-18T15:04:35;24.06;60.14
68439;SHT31;55421;51.600;5.718;2023-09-18T15:07:01;23.97;59.89
68439;SHT31;55421;51.600;5.718;2023-09-18T15:09:28;23.88;59.91
68439;SHT31;55421;51.600;5.718;2023-09-18T15:11:54;23.81;60.15
68439;SHT31;55421;51.600;5.718;2023-09-18T15:14:21;23.72;60.29
68439;SHT31;55421;51.600;5.718;2023-09-18T15:16:47;23.65;60.30
68439;SHT31;55421;51.600;5.718;2023-09-18T15:19:13;23.59;60.31
68439;SHT31;55421;51.600;5.718;2023-09-18T15:21:42;23.54;60.40
68439;SHT31;55421;51.600;5.718;2023-09-18T15:24:09;23.50;60.06
68439;SHT31;55421;51.600;5.718;2023-09-18T15:26:36;23.48;60.11
68439;SHT31;55421;51.600;5.718;2023-09-18T15:29:02;23.45;60.21
68439;SHT31;55421;51.600;5.718;2023-09-18T15:31:29;23.40;60.05
68439;SHT31;55421;51.600;5.718;2023-09-18T15:33:56;23.34;60.14
68439;SHT31;55421;51.600;5.718;2023-09-18T15:36:22;23.30;60.64
68439;SHT31;55421;51.600;5.718;2023-09-18T15:38:49;23.25;60.82
68439;SHT31;55421;51.600;5.718;2023-09-18T15:41:17;23.18;60.67
68439;SHT31;55421;51.600;5.718;2023-09-18T15:43:43;22.99;61.68
68439;SHT31;55421;51.600;5.718;2023-09-18T15:46:12;22.57;63.27
68439;SHT31;55421;51.600;5.718;2023-09-18T15:48:39;22.11;65.28
68439;SHT31;55421;51.600;5.718;2023-09-18T15:51:06;21.66;67.31
68439;SHT31;55421;51.600;5.718;2023-09-18T15:53:32;21.24;68.65
68439;SHT31;55421;51.600;5.718;2023-09-18T15:55:58;20.86;69.48
68439;SHT31;55421;51.600;5.718;2023-09-18T15:58:26;20.59;70.13
68439;SHT31;55421;51.600;5.718;2023-09-18T16:00:52;20.42;71.01
68439;SHT31;55421;51.600;5.718;2023-09-18T16:03:20;20.21;72.23